Time;durP1;ratioP1;P1;durP2;ratioP2;P2;SDS_P1;SDS_P2;PMS_P1;PMS_P2;Temp;Humidity;BMP_temperature;BMP_pressure;BME280_temperature;BME280_humidity;BME280_pressure;Samples;Min_cycle;Max_cycle;Signal;HPM_P1;HPM_P2
2021/12/01 00:00:56;;;;;;;52.22;27.08;;;9.40;99.90;;;;;;5014005;28;20088;-45
2021/12/01 00:03:23;;;;;;;46.88;27.92;;;9.40;99.90;;;;;;5014493;28;20110;-46
2021/12/01 00:05:50;;;;;;;52.38;26.95;;;9.40;99.90;;;;;;5014144;28;20128;-45
2021/12/01 00:08:17;;;;;;;48.17;26.90;;;9.40;99.90;;;;;;5014353;28;20128;-47
2021/12/01 00:10:44;;;;;;;48.35;26.55;;;9.50;99.90;;;;;;5013439;28;20057;-46
2021/12/01 00:13:13;;;;;;;44.78;25.58;;;9.50;99.90;;;;;;5013999;28;20099;-45
2021/12/01 00:15:42;;;;;;;39.83;24.27;;;9.50;99.90;;;;;;5013664;28;20551;-49
2021/12/01 00:18:09;;;;;;;39.33;24.25;;;9.50;99.90;;;;;;5028408;28;20141;-45
2021/12/01 00:20:36;;;;;;;39.10;25.52;;;9.50;99.90;;;;;;5033803;28;20509;-45
2021/12/01 00:23:03;;;;;;;40.75;23.88;;;9.50;99.90;;;;;;5034721;28;20051;-47
2021/12/01 00:25:31;;;;;;;44.33;23.25;;;9.50;99.90;;;;;;5017906;28;20118;-45
2021/12/01 00:27:58;;;;;;;39.45;23.00;;;9.60;99.90;;;;;;5034893;28;20485;-45
2021/12/01 00:30:25;;;;;;;39.78;23.15;;;9.60;99.90;;;;;;5018016;28;20129;-45
2021/12/01 00:32:54;;;;;;;37.90;22.42;;;9.60;99.90;;;;;;5035374;28;20402;-46
2021/12/01 00:35:21;;;;;;;40.72;22.88;;;9.60;99.90;;;;;;5027554;28;20120;-46
2021/12/01 00:37:48;;;;;;;39.47;22.15;;;9.60;99.90;;;;;;5035769;28;20049;-46
2021/12/01 00:40:15;;;;;;;41.38;22.90;;;9.60;99.90;;;;;;5035128;28;20051;-45
2021/12/01 00:42:42;;;;;;;36.75;22.73;;;9.60;99.90;;;;;;5017206;28;20721;-45
2021/12/01 00:45:13;;;;;;;30.60;19.38;;;9.60;99.90;;;;;;5036936;28;20053;-47
2021/12/01 00:47:43;;;;;;;35.30;22.15;;;9.60;99.90;;;;;;5017272;28;20059;-45
2021/12/01 00:50:12;;;;;;;36.60;21.63;;;9.60;99.90;;;;;;5018812;28;20053;-46
2021/12/01 00:52:39;;;;;;;38.55;22.42;;;9.60;99.90;;;;;;5034592;28;20442;-47
2021/12/01 00:55:07;;;;;;;40.10;21.23;;;9.60;99.90;;;;;;5015973;28;20124;-49
2021/12/01 00:57:34;;;;;;;34.30;22.38;;;9.60;99.90;;;;;;5047600;28;20128;-45
2021/12/01 01:00:01;;;;;;;35.65;20.02;;;9.60;99.90;;;;;;5041907;28;20461;-46
2021/12/01 01:02:28;;;;;;;38.20;21.15;;;9.60;99.90;;;;;;5033439;28;20055;-47
2021/12/01 01:04:55;;;;;;;38.88;20.15;;;9.60;99.90;;;;;;5034413;28;20412;-45
2021/12/01 01:07:23;;;;;;;41.95;20.25;;;9.60;99.90;;;;;;5034754;28;20049;-45
2021/12/01 01:09:50;;;;;;;35.10;19.02;;;9.60;99.90;;;;;;5017244;28;20396;-46
2021/12/01 01:17:56;;;;;;;33.22;18.63;;;9.70;99.90;;;;;;5028260;28;20485;-46
2021/12/01 01:20:23;;;;;;;34.28;18.15;;;9.60;99.90;;;;;;5017121;28;20049;-46
2021/12/01 01:22:51;;;;;;;37.78;19.73;;;9.60;99.90;;;;;;5017252;28;20057;-45
2021/12/01 01:25:18;;;;;;;35.97;18.48;;;9.70;99.90;;;;;;5015334;28;20128;-47
2021/12/01 01:27:45;;;;;;;32.50;16.55;;;9.70;99.90;;;;;;5017286;28;20073;-46
2021/12/01 01:30:12;;;;;;;29.45;15.90;;;9.60;99.90;;;;;;5033517;28;20052;-45
2021/12/01 01:32:42;;;;;;;29.95;15.27;;;9.70;99.90;;;;;;5033780;28;20053;-45
2021/12/01 01:35:09;;;;;;;24.25;14.07;;;9.70;99.90;;;;;;5016584;28;20583;-46
2021/12/01 01:37:36;;;;;;;29.77;13.85;;;9.60;99.90;;;;;;5016894;28;20163;-45
2021/12/01 01:40:05;;;;;;;19.70;12.55;;;9.60;99.90;;;;;;5016462;28;20527;-45
2021/12/01 01:42:32;;;;;;;19.05;11.50;;;9.70;99.90;;;;;;5033386;28;20100;-45
2021/12/01 01:44:59;;;;;;;18.55;11.30;;;9.70;99.90;;;;;;5016677;28;20088;-46
2021/12/01 01:47:26;;;;;;;19.95;10.57;;;9.70;99.90;;;;;;5016209;28;20077;-46
2021/12/01 01:49:57;;;;;;;23.83;10.98;;;9.70;99.90;;;;;;5016921;28;20085;-46
2021/12/01 01:52:26;;;;;;;16.48;10.13;;;9.70;99.90;;;;;;5016440;28;20091;-45
2021/12/01 01:54:53;;;;;;;14.52;8.73;;;9.70;99.90;;;;;;5015983;28;20053;-45
2021/12/01 01:57:21;;;;;;;14.88;9.02;;;9.70;99.90;;;;;;5015927;28;20492;-46
2021/12/01 01:59:48;;;;;;;16.27;9.27;;;9.70;99.90;;;;;;5034082;28;20049;-45
2021/12/01 02:02:15;;;;;;;19.02;9.70;;;9.70;99.90;;;;;;5033597;28;20124;-46
2021/12/01 02:04:43;;;;;;;13.35;9.50;;;9.70;99.90;;;;;;5036484;28;20092;-45
2021/12/01 02:07:10;;;;;;;13.45;9.10;;;9.80;99.90;;;;;;5033289;28;20121;-50
2021/12/01 02:09:37;;;;;;;12.73;8.88;;;9.70;99.90;;;;;;5033847;28;20095;-46
2021/12/01 02:12:05;;;;;;;13.82;8.55;;;9.80;99.90;;;;;;5034762;28;20050;-46
2021/12/01 02:14:33;;;;;;;12.88;7.65;;;9.80;99.90;;;;;;5033112;28;20092;-45
2021/12/01 02:17:00;;;;;;;12.65;7.40;;;9.80;99.90;;;;;;5036505;28;20079;-46
2021/12/01 02:19:27;;;;;;;11.18;7.68;;;9.80;99.90;;;;;;5015160;28;20049;-46
2021/12/01 02:21:56;;;;;;;11.10;6.50;;;9.80;99.90;;;;;;5015807;28;20080;-44
2021/12/01 02:24:23;;;;;;;9.20;6.38;;;9.80;99.90;;;;;;5033028;28;20041;-46
2021/12/01 02:26:51;;;;;;;11.07;7.15;;;9.80;99.90;;;;;;5033651;28;20481;-45
2021/12/01 02:29:20;;;;;;;10.10;6.65;;;9.80;99.90;;;;;;5033306;28;20481;-46
2021/12/01 02:31:47;;;;;;;12.05;6.00;;;9.90;99.90;;;;;;5015272;28;20128;-47
2021/12/01 02:34:16;;;;;;;9.18;5.88;;;9.90;99.90;;;;;;5028517;28;20120;-45
2021/12/01 02:36:44;;;;;;;7.85;5.00;;;9.90;99.90;;;;;;5015829;28;20403;-46
2021/12/01 02:39:15;;;;;;;8.27;5.05;;;9.90;99.90;;;;;;5015834;28;20053;-45
2021/12/01 02:41:42;;;;;;;9.57;5.55;;;9.90;99.90;;;;;;5015456;28;20053;-46
2021/12/01 02:44:11;;;;;;;10.65;5.50;;;10.00;99.90;;;;;;5032926;28;20052;-46
2021/12/01 02:46:38;;;;;;;12.05;6.43;;;9.90;99.90;;;;;;5015346;28;20156;-47
2021/12/01 02:49:06;;;;;;;10.32;6.10;;;10.00;99.90;;;;;;5008843;28;20056;-45
2021/12/01 02:51:36;;;;;;;8.77;5.95;;;10.00;99.90;;;;;;5014737;28;20088;-48
2021/12/01 02:54:03;;;;;;;9.35;5.90;;;10.00;99.90;;;;;;5032299;28;20045;-45
2021/12/01 02:56:32;;;;;;;10.45;5.40;;;10.00;99.90;;;;;;5015425;28;20057;-47
2021/12/01 02:58:59;;;;;;;8.15;5.75;;;10.00;99.90;;;;;;5015306;28;20061;-46
2021/12/01 03:01:26;;;;;;;8.77;6.13;;;10.00;99.90;;;;;;5015110;28;20136;-46
2021/12/01 03:03:54;;;;;;;7.53;5.40;;;10.00;99.90;;;;;;5032769;28;20135;-46
2021/12/01 03:06:22;;;;;;;7.63;4.93;;;10.00;99.90;;;;;;5015046;28;20045;-46
2021/12/01 03:08:50;;;;;;;6.75;5.00;;;10.00;99.90;;;;;;5046616;28;20057;-45
2021/12/01 03:11:17;;;;;;;7.15;4.75;;;10.00;99.90;;;;;;5032712;28;20041;-46
2021/12/01 03:13:45;;;;;;;5.65;4.30;;;10.00;99.90;;;;;;5046931;28;20055;-46
2021/12/01 03:16:15;;;;;;;8.18;4.03;;;10.00;99.90;;;;;;5032427;28;20129;-45
2021/12/01 03:18:43;;;;;;;8.05;3.28;;;10.00;99.90;;;;;;5034288;28;20091;-46
2021/12/01 03:21:11;;;;;;;5.57;3.13;;;10.00;99.90;;;;;;5006978;28;20049;-46
2021/12/01 03:23:38;;;;;;;8.93;3.85;;;10.00;99.90;;;;;;5014236;28;20084;-46
2021/12/01 03:26:05;;;;;;;7.75;3.25;;;10.00;99.90;;;;;;5013385;28;20053;-46
2021/12/01 03:28:32;;;;;;;10.88;2.67;;;10.00;99.90;;;;;;5031890;28;20113;-46
2021/12/01 03:31:00;;;;;;;12.65;2.35;;;10.00;99.90;;;;;;5037391;28;20084;-45
2021/12/01 03:33:27;;;;;;;11.18;2.60;;;10.00;99.90;;;;;;5031351;28;20049;-45
2021/12/01 03:35:54;;;;;;;11.60;2.38;;;10.00;99.90;;;;;;5014469;28;20053;-46
2021/12/01 03:38:22;;;;;;;7.10;2.20;;;10.00;99.90;;;;;;5014192;28;20049;-45
2021/12/01 03:40:49;;;;;;;10.23;2.20;;;10.00;99.90;;;;;;5014648;28;20060;-46
2021/12/01 03:43:16;;;;;;;9.15;2.28;;;10.00;99.90;;;;;;5027699;28;20045;-47
2021/12/01 03:45:43;;;;;;;8.82;2.28;;;9.90;99.90;;;;;;5032437;28;20056;-45
2021/12/01 03:48:12;;;;;;;7.30;2.13;;;9.90;99.90;;;;;;5031566;28;20477;-45
2021/12/01 03:50:39;;;;;;;9.02;2.22;;;9.90;99.90;;;;;;5031902;28;20053;-46
2021/12/01 03:53:06;;;;;;;9.77;2.40;;;9.90;99.90;;;;;;5029955;28;20069;-46
2021/12/01 03:55:34;;;;;;;4.60;2.00;;;9.90;99.90;;;;;;5013184;28;20050;-46
2021/12/01 03:58:01;;;;;;;6.35;2.65;;;9.90;99.90;;;;;;5014698;28;20053;-50
2021/12/01 04:00:28;;;;;;;6.90;2.72;;;9.90;99.90;;;;;;5030482;28;20063;-46
2021/12/01 04:02:55;;;;;;;5.70;3.10;;;9.90;99.90;;;;;;5031369;28;20142;-46
2021/12/01 04:05:23;;;;;;;7.15;2.65;;;9.90;99.90;;;;;;5030934;28;20045;-46
2021/12/01 04:07:50;;;;;;;5.97;3.10;;;9.90;99.90;;;;;;5025937;28;20040;-45
2021/12/01 04:10:17;;;;;;;6.68;3.28;;;9.90;99.90;;;;;;5013847;28;20077;-46
2021/12/01 04:12:45;;;;;;;6.53;3.00;;;9.90;99.90;;;;;;5013939;28;20378;-46
2021/12/01 04:15:13;;;;;;;5.90;2.80;;;9.90;99.90;;;;;;5032168;28;20440;-45
2021/12/01 04:17:40;;;;;;;6.82;2.78;;;9.90;99.90;;;;;;5031696;28;20057;-47
2021/12/01 04:20:08;;;;;;;6.65;3.03;;;9.90;99.90;;;;;;5014516;28;20059;-47
2021/12/01 04:22:37;;;;;;;6.97;3.30;;;9.90;99.90;;;;;;5029658;28;20053;-46
2021/12/01 04:25:04;;;;;;;5.78;3.30;;;9.90;99.90;;;;;;5031620;28;20045;-45
2021/12/01 04:27:31;;;;;;;5.28;2.88;;;9.90;99.90;;;;;;5028538;28;21925;-48
2021/12/01 04:29:58;;;;;;;4.15;2.70;;;9.80;99.90;;;;;;5013355;28;20140;-46
2021/12/01 04:32:25;;;;;;;5.45;3.35;;;9.90;99.90;;;;;;5031138;28;20128;-45
2021/12/01 04:34:52;;;;;;;6.32;3.20;;;9.90;99.90;;;;;;5015975;28;20124;-45
2021/12/01 04:37:19;;;;;;;5.20;3.00;;;9.80;99.90;;;;;;5013641;28;20080;-45
2021/12/01 04:39:48;;;;;;;3.55;2.65;;;9.90;99.90;;;;;;5015073;28;20432;-46
2021/12/01 04:42:16;;;;;;;4.38;2.70;;;9.90;99.90;;;;;;5048612;28;20556;-46
2021/12/01 04:44:43;;;;;;;2.42;2.15;;;9.90;99.90;;;;;;5038181;28;20408;-46
2021/12/01 04:47:13;;;;;;;3.72;2.50;;;9.80;99.90;;;;;;5013699;28;20060;-45
2021/12/01 04:49:40;;;;;;;5.53;2.55;;;9.80;99.90;;;;;;5013541;28;20058;-45
2021/12/01 04:52:08;;;;;;;3.63;2.30;;;9.90;99.90;;;;;;5031028;28;20408;-46
2021/12/01 04:54:35;;;;;;;4.28;2.00;;;9.80;99.90;;;;;;5013911;28;20107;-45
2021/12/01 04:57:04;;;;;;;4.05;2.08;;;9.80;99.90;;;;;;5030795;28;20489;-47
2021/12/01 04:59:31;;;;;;;3.42;1.95;;;9.80;99.90;;;;;;5030860;28;20129;-46
2021/12/01 05:01:58;;;;;;;4.05;2.13;;;9.80;99.90;;;;;;5030639;28;20104;-45
2021/12/01 05:04:25;;;;;;;3.20;2.30;;;9.80;99.90;;;;;;5013231;28;20053;-45
2021/12/01 05:06:52;;;;;;;3.13;2.08;;;9.70;99.90;;;;;;5010910;28;20135;-46
2021/12/01 05:09:19;;;;;;;4.72;2.28;;;9.70;99.90;;;;;;5030391;28;20081;-46
2021/12/01 05:11:46;;;;;;;3.38;2.00;;;9.70;99.90;;;;;;5014243;28;20132;-45
2021/12/01 05:14:15;;;;;;;2.55;2.13;;;9.70;99.90;;;;;;5016979;28;20535;-45
2021/12/01 05:16:42;;;;;;;2.50;2.13;;;9.70;99.90;;;;;;5033816;28;20080;-46
2021/12/01 05:19:09;;;;;;;3.08;1.90;;;9.70;99.90;;;;;;5011421;28;20511;-47
2021/12/01 05:21:37;;;;;;;2.85;2.28;;;9.70;99.90;;;;;;5033711;28;20080;-45
2021/12/01 05:24:04;;;;;;;2.65;2.35;;;9.70;99.90;;;;;;5032938;28;20123;-45
2021/12/01 05:26:31;;;;;;;3.80;2.33;;;9.70;99.90;;;;;;5016098;28;20053;-46
2021/12/01 05:28:58;;;;;;;4.45;2.78;;;9.70;99.90;;;;;;5034226;28;20124;-46
2021/12/01 05:31:26;;;;;;;2.72;2.53;;;9.60;99.90;;;;;;5034364;28;20091;-46
2021/12/01 05:33:53;;;;;;;2.97;2.67;;;9.60;99.90;;;;;;5015720;28;20099;-45
2021/12/01 05:36:20;;;;;;;5.35;3.03;;;9.60;99.90;;;;;;5034430;28;20053;-46
2021/12/01 05:38:47;;;;;;;4.53;2.85;;;9.60;99.90;;;;;;5016353;28;20107;-45
2021/12/01 05:41:14;;;;;;;5.93;2.75;;;9.60;99.90;;;;;;5048120;28;20085;-46
2021/12/01 05:43:41;;;;;;;5.55;2.75;;;9.60;99.90;;;;;;5033873;28;20129;-46
2021/12/01 05:46:08;;;;;;;3.10;2.80;;;9.60;99.90;;;;;;5033520;28;20064;-46
2021/12/01 05:48:37;;;;;;;3.28;2.97;;;9.50;99.90;;;;;;5014474;28;20175;-45
2021/12/01 05:51:04;;;;;;;3.47;2.60;;;9.50;99.90;;;;;;5032576;28;20473;-46
2021/12/01 05:53:31;;;;;;;3.97;3.28;;;9.50;99.90;;;;;;5016532;28;20057;-45
2021/12/01 05:55:58;;;;;;;3.40;2.97;;;9.50;99.90;;;;;;5032537;28;20524;-48
2021/12/01 05:58:25;;;;;;;4.65;3.10;;;9.50;99.90;;;;;;5033502;28;20048;-46
2021/12/01 06:00:52;;;;;;;4.03;2.72;;;9.50;99.90;;;;;;5016600;28;20056;-45
2021/12/01 06:03:19;;;;;;;2.60;2.40;;;9.50;99.90;;;;;;5024044;28;20128;-46
2021/12/01 06:05:50;;;;;;;3.13;2.80;;;9.50;99.90;;;;;;5011146;28;20064;-45
2021/12/01 06:08:18;;;;;;;2.78;2.47;;;9.40;99.90;;;;;;5029761;28;20129;-45
2021/12/01 06:10:45;;;;;;;5.25;2.53;;;9.40;99.90;;;;;;5014976;28;20405;-46
2021/12/01 06:13:15;;;;;;;3.35;2.20;;;9.40;99.90;;;;;;5016704;28;20476;-45
2021/12/01 06:15:43;;;;;;;2.40;2.20;;;9.40;99.90;;;;;;5025296;28;20143;-46
2021/12/01 06:18:10;;;;;;;3.55;2.25;;;9.30;99.90;;;;;;5037067;28;20045;-46
2021/12/01 06:20:37;;;;;;;2.35;1.65;;;9.30;99.90;;;;;;5013413;28;20133;-45
2021/12/01 06:23:06;;;;;;;2.30;1.75;;;9.30;99.90;;;;;;5033215;28;20041;-46
2021/12/01 06:25:33;;;;;;;1.67;1.58;;;9.30;99.90;;;;;;5032771;28;20055;-46
2021/12/01 06:28:00;;;;;;;1.80;1.70;;;9.20;99.90;;;;;;5032262;28;20045;-46
2021/12/01 06:30:27;;;;;;;2.38;1.70;;;9.20;99.90;;;;;;5031630;28;20049;-48
2021/12/01 06:32:54;;;;;;;2.28;1.50;;;9.20;99.90;;;;;;5014293;28;20143;-47
2021/12/01 06:35:21;;;;;;;2.83;1.40;;;9.20;99.90;;;;;;5032150;28;20041;-49
2021/12/01 06:37:50;;;;;;;2.25;1.30;;;9.20;99.90;;;;;;5031411;28;20075;-45
2021/12/01 06:40:18;;;;;;;2.63;1.30;;;9.20;99.90;;;;;;5028513;28;20053;-47
2021/12/01 06:42:45;;;;;;;1.73;1.48;;;9.20;99.90;;;;;;5024169;28;20137;-45
2021/12/01 06:45:12;;;;;;;2.17;1.40;;;9.20;99.90;;;;;;4994083;28;20093;-46
2021/12/01 06:47:40;;;;;;;1.83;1.42;;;9.10;99.90;;;;;;4995376;28;21855;-45
2021/12/01 06:50:07;;;;;;;2.17;1.50;;;9.20;99.90;;;;;;4987358;28;20497;-45
2021/12/01 06:52:34;;;;;;;1.30;1.20;;;9.10;99.90;;;;;;5012518;28;20054;-45
2021/12/01 06:55:01;;;;;;;1.80;1.35;;;9.10;99.90;;;;;;4995128;28;20469;-45
2021/12/01 06:57:30;;;;;;;2.88;1.23;;;9.10;99.90;;;;;;5015412;28;20045;-46
2021/12/01 06:59:57;;;;;;;1.48;1.38;;;9.10;99.90;;;;;;5011841;28;20552;-45
2021/12/01 07:02:24;;;;;;;2.17;1.33;;;9.10;99.90;;;;;;5010680;28;21534;-46
2021/12/01 07:04:51;;;;;;;1.98;1.30;;;9.10;99.90;;;;;;4995336;28;20520;-46
2021/12/01 07:07:18;;;;;;;1.60;1.40;;;9.10;99.90;;;;;;5001073;28;20060;-45
2021/12/01 07:09:49;;;;;;;1.88;1.60;;;9.10;99.90;;;;;;5020000;28;20454;-45
2021/12/01 07:12:16;;;;;;;1.70;1.60;;;9.10;99.90;;;;;;4995033;28;20069;-48
2021/12/01 07:14:44;;;;;;;2.20;1.58;;;9.00;99.90;;;;;;4981546;28;20533;-52
2021/12/01 07:17:11;;;;;;;3.25;1.73;;;9.00;99.90;;;;;;4983855;28;20061;-46
2021/12/01 07:19:38;;;;;;;2.22;1.80;;;9.00;99.90;;;;;;4994677;28;20461;-45
2021/12/01 07:22:05;;;;;;;1.90;1.60;;;9.00;99.90;;;;;;4994813;28;20052;-46
2021/12/01 07:24:32;;;;;;;1.73;1.60;;;9.00;99.90;;;;;;4994852;28;20092;-45
2021/12/01 07:26:59;;;;;;;3.53;1.90;;;9.00;99.90;;;;;;4995081;28;20129;-46
2021/12/01 07:29:26;;;;;;;2.47;2.25;;;9.00;99.90;;;;;;5001683;28;20124;-45
2021/12/01 07:31:55;;;;;;;2.78;2.00;;;9.00;99.90;;;;;;4994036;28;20140;-46
2021/12/01 07:34:22;;;;;;;2.60;2.40;;;9.00;99.90;;;;;;5012051;28;20064;-45
2021/12/01 07:36:49;;;;;;;5.28;2.67;;;9.00;99.90;;;;;;4994440;28;20490;-45
2021/12/01 07:39:16;;;;;;;4.57;3.00;;;9.00;99.90;;;;;;5007283;28;20144;-47
2021/12/01 07:41:43;;;;;;;4.18;2.83;;;9.00;99.90;;;;;;5014463;28;20060;-46
2021/12/01 07:44:10;;;;;;;3.78;3.08;;;9.00;99.90;;;;;;5030251;28;20099;-46
2021/12/01 07:46:37;;;;;;;4.18;3.00;;;9.00;99.90;;;;;;5030175;28;20048;-45
2021/12/01 07:49:05;;;;;;;3.78;2.90;;;9.00;99.90;;;;;;5038688;28;20049;-46
2021/12/01 07:51:32;;;;;;;3.35;3.05;;;9.00;99.90;;;;;;5012222;28;20057;-46
2021/12/01 07:53:59;;;;;;;3.13;2.83;;;9.00;99.90;;;;;;5038647;28;20460;-46
2021/12/01 07:56:26;;;;;;;4.70;3.42;;;9.00;99.90;;;;;;5030533;28;20049;-45
2021/12/01 07:58:53;;;;;;;4.55;3.78;;;9.10;99.90;;;;;;5038013;28;20389;-45
2021/12/01 08:01:20;;;;;;;8.15;3.70;;;9.10;99.90;;;;;;5037772;28;20124;-45
2021/12/01 08:03:47;;;;;;;4.13;3.30;;;9.10;99.90;;;;;;5030856;28;20128;-48
2021/12/01 08:06:16;;;;;;;3.95;3.13;;;9.10;99.90;;;;;;5013814;28;20050;-46
2021/12/01 08:08:43;;;;;;;4.53;4.03;;;9.10;99.90;;;;;;5048527;28;20444;-48
2021/12/01 08:11:10;;;;;;;4.57;3.53;;;9.10;99.90;;;;;;5025094;28;20085;-45
2021/12/01 08:13:37;;;;;;;5.50;3.60;;;9.10;99.90;;;;;;4983386;28;21379;-48
2021/12/01 08:16:05;;;;;;;5.75;3.47;;;9.20;99.90;;;;;;5013502;28;20053;-47
2021/12/01 08:18:32;;;;;;;5.70;3.60;;;9.20;99.90;;;;;;5030696;28;20073;-46
2021/12/01 08:20:59;;;;;;;6.53;3.80;;;9.20;99.90;;;;;;5040083;28;20103;-46
2021/12/01 08:23:27;;;;;;;6.40;3.22;;;9.20;99.90;;;;;;5014178;28;20045;-46
2021/12/01 08:25:54;;;;;;;4.18;3.22;;;9.20;99.90;;;;;;5039567;28;20054;-46
2021/12/01 08:28:21;;;;;;;5.68;3.67;;;9.20;99.90;;;;;;5030712;28;20081;-45
2021/12/01 08:30:48;;;;;;;10.30;3.92;;;9.20;99.90;;;;;;5044241;28;20481;-46
2021/12/01 08:33:15;;;;;;;5.20;3.75;;;9.20;99.90;;;;;;5032326;28;20053;-48
2021/12/01 08:35:42;;;;;;;8.85;4.13;;;9.20;99.90;;;;;;5012759;28;20084;-45
2021/12/01 08:38:09;;;;;;;5.93;3.80;;;9.20;99.90;;;;;;5013630;28;20092;-46
2021/12/01 08:40:38;;;;;;;7.25;3.63;;;9.20;99.90;;;;;;5027817;28;20077;-48
2021/12/01 08:43:05;;;;;;;9.38;3.40;;;9.20;99.90;;;;;;4999929;28;20546;-46
2021/12/01 08:45:33;;;;;;;7.05;3.20;;;9.30;99.90;;;;;;5010604;28;20498;-46
2021/12/01 08:47:59;;;;;;;6.32;3.63;;;9.30;99.90;;;;;;4999695;28;20050;-46
2021/12/01 08:50:26;;;;;;;9.80;3.00;;;9.30;99.90;;;;;;5014596;28;20078;-46
2021/12/01 08:52:53;;;;;;;9.60;2.90;;;9.30;99.90;;;;;;5014200;28;20075;-46
2021/12/01 08:55:22;;;;;;;10.27;2.30;;;9.30;99.90;;;;;;4997053;28;20516;-46
2021/12/01 08:57:51;;;;;;;9.23;1.90;;;9.20;99.90;;;;;;5021208;28;20128;-45
2021/12/01 09:00:19;;;;;;;8.82;2.17;;;9.20;99.90;;;;;;5014747;28;20736;-45
2021/12/01 09:02:46;;;;;;;11.68;1.85;;;9.20;99.90;;;;;;5013626;28;20081;-49
2021/12/01 09:05:13;;;;;;;11.85;1.95;;;9.20;99.90;;;;;;4996098;28;20061;-47
2021/12/01 09:07:40;;;;;;;8.90;1.95;;;9.20;99.90;;;;;;5002351;28;20564;-48
2021/12/01 09:10:08;;;;;;;14.65;2.20;;;9.20;99.90;;;;;;5015953;28;20046;-46
2021/12/01 09:12:38;;;;;;;15.00;2.13;;;9.20;99.90;;;;;;5000275;28;20136;-48
2021/12/01 09:15:07;;;;;;;17.10;2.33;;;9.20;99.90;;;;;;4996216;28;20508;-45
2021/12/01 09:17:34;;;;;;;15.10;2.15;;;9.20;99.90;;;;;;4996274;28;20054;-45
2021/12/01 09:20:03;;;;;;;15.77;2.10;;;9.20;99.90;;;;;;5013825;28;20125;-45
2021/12/01 09:22:30;;;;;;;10.70;1.67;;;9.20;99.90;;;;;;5013454;28;20077;-45
2021/12/01 09:24:57;;;;;;;15.65;2.10;;;9.20;99.90;;;;;;4997907;28;20442;-51
2021/12/01 09:27:24;;;;;;;13.50;1.70;;;9.20;99.90;;;;;;4997418;28;20140;-45
2021/12/01 09:29:53;;;;;;;16.33;2.08;;;9.10;99.90;;;;;;5011802;28;20427;-46
2021/12/01 09:32:21;;;;;;;12.07;2.22;;;9.20;99.90;;;;;;5006203;28;20096;-48
2021/12/01 09:34:48;;;;;;;11.95;1.92;;;9.20;99.90;;;;;;4996236;28;20054;-45
2021/12/01 09:37:16;;;;;;;11.07;1.50;;;9.20;99.90;;;;;;5015307;28;20045;-46
2021/12/01 09:39:43;;;;;;;11.00;1.80;;;9.20;99.90;;;;;;5001916;28;20123;-45
2021/12/01 09:42:10;;;;;;;11.43;1.73;;;9.20;99.90;;;;;;5009255;28;20064;-48
2021/12/01 09:44:37;;;;;;;12.30;1.75;;;9.20;99.90;;;;;;5016723;28;20132;-46
2021/12/01 09:47:05;;;;;;;9.55;1.88;;;9.20;99.90;;;;;;5014618;28;20054;-46
2021/12/01 09:49:33;;;;;;;7.82;1.52;;;9.10;99.90;;;;;;5025821;28;20750;-47
2021/12/01 09:52:00;;;;;;;9.98;1.50;;;9.10;99.90;;;;;;5009566;28;20084;-46
2021/12/01 09:54:27;;;;;;;9.65;1.75;;;9.10;99.90;;;;;;5013690;28;20484;-45
2021/12/01 09:56:54;;;;;;;10.25;1.67;;;9.00;99.90;;;;;;5017765;28;20060;-51
2021/12/01 09:59:21;;;;;;;18.83;1.63;;;9.00;99.90;;;;;;5024689;28;20096;-46
2021/12/01 10:01:48;;;;;;;10.38;1.88;;;9.10;99.90;;;;;;5019527;28;20133;-48
2021/12/01 10:04:15;;;;;;;11.65;1.75;;;9.00;99.90;;;;;;5017974;28;20084;-48
2021/12/01 10:06:43;;;;;;;12.77;1.80;;;9.00;99.90;;;;;;5013722;28;20049;-48
2021/12/01 10:09:12;;;;;;;13.38;1.63;;;9.10;99.90;;;;;;5024346;28;20050;-46
2021/12/01 10:11:41;;;;;;;12.57;1.73;;;9.10;99.90;;;;;;5009541;28;20054;-46
2021/12/01 10:14:09;;;;;;;13.85;1.83;;;9.10;99.90;;;;;;5024713;28;20050;-47
2021/12/01 10:16:38;;;;;;;13.50;2.10;;;9.10;99.90;;;;;;5011567;28;20425;-46
2021/12/01 10:19:06;;;;;;;12.95;1.77;;;9.10;99.90;;;;;;5013163;28;20151;-46
2021/12/01 10:21:34;;;;;;;16.58;1.70;;;9.10;99.90;;;;;;5022164;28;20049;-46
2021/12/01 10:24:04;;;;;;;11.45;2.05;;;9.10;99.90;;;;;;5019545;28;20100;-46
2021/12/01 10:26:33;;;;;;;15.95;2.25;;;9.20;99.90;;;;;;5011124;28;20045;-49
2021/12/01 10:29:00;;;;;;;18.95;2.17;;;9.20;99.90;;;;;;5012047;28;20054;-46
2021/12/01 10:31:35;;;;;;;12.07;1.73;;;9.10;99.90;;;;;;5010714;28;20121;-51
2021/12/01 10:34:26;;;;;;;11.75;2.17;;;9.10;99.90;;;;;;5015591;28;20385;-46
2021/12/01 10:37:08;;;;;;;11.75;2.15;;;9.10;99.90;;;;;;5012499;28;20482;-46
2021/12/01 10:39:37;;;;;;;12.30;2.00;;;9.10;99.90;;;;;;5026373;28;20045;-46
2021/12/01 10:42:05;;;;;;;13.52;2.00;;;9.10;99.90;;;;;;5015193;28;20139;-47
2021/12/01 10:44:32;;;;;;;17.73;2.00;;;9.20;99.90;;;;;;5008971;28;20104;-49
2021/12/01 10:46:59;;;;;;;15.10;2.03;;;9.20;99.90;;;;;;4995670;28;20144;-47
2021/12/01 10:49:33;;;;;;;12.38;1.90;;;9.20;99.90;;;;;;4992488;28;20054;-46
2021/12/01 10:52:00;;;;;;;8.60;1.60;;;9.30;99.90;;;;;;5011983;28;20625;-47
2021/12/01 10:54:27;;;;;;;18.23;2.13;;;9.30;99.90;;;;;;5016725;28;20060;-47
2021/12/01 10:57:20;;;;;;;9.32;1.73;;;9.30;99.90;;;;;;5001084;28;20132;-47
2021/12/01 10:59:47;;;;;;;11.98;2.03;;;9.30;99.90;;;;;;5018985;28;20041;-46
2021/12/01 11:02:15;;;;;;;8.98;1.83;;;9.20;99.90;;;;;;5016141;28;20049;-46
2021/12/01 11:04:43;;;;;;;16.25;1.90;;;9.20;99.90;;;;;;5021318;28;20053;-47
2021/12/01 11:07:24;;;;;;;15.88;2.05;;;9.20;99.90;;;;;;5012697;28;20081;-47
2021/12/01 11:10:20;;;;;;;14.00;2.13;;;9.20;99.90;;;;;;4991708;28;20125;-48
2021/12/01 11:12:55;;;;;;;13.38;1.95;;;9.20;99.90;;;;;;4996762;28;20421;-45
2021/12/01 11:15:24;;;;;;;14.63;2.10;;;9.20;99.90;;;;;;5029100;28;20478;-44
2021/12/01 11:17:51;;;;;;;17.88;3.17;;;9.10;99.90;;;;;;5012420;28;20046;-45
2021/12/01 11:20:38;;;;;;;21.33;2.50;;;9.10;99.90;;;;;;4995630;28;20046;-45
2021/12/01 11:23:22;;;;;;;16.38;2.65;;;9.10;99.90;;;;;;4990529;28;20064;-45
2021/12/01 11:25:51;;;;;;;21.30;2.80;;;9.10;99.90;;;;;;4992324;28;20053;-46
2021/12/01 11:28:20;;;;;;;18.65;2.85;;;9.10;99.90;;;;;;5008328;28;20054;-45
2021/12/01 11:30:48;;;;;;;17.42;2.13;;;9.10;99.90;;;;;;5010602;28;20073;-45
2021/12/01 11:33:17;;;;;;;17.95;2.80;;;9.10;99.90;;;;;;5009232;28;20401;-46
2021/12/01 11:35:45;;;;;;;18.83;2.92;;;9.10;99.90;;;;;;4994608;28;20053;-45
2021/12/01 11:38:13;;;;;;;17.15;3.05;;;9.20;99.90;;;;;;5012463;28;20089;-46
2021/12/01 11:40:40;;;;;;;25.48;3.80;;;9.10;99.90;;;;;;5011555;28;20081;-46
2021/12/01 11:43:08;;;;;;;25.35;3.55;;;9.10;99.90;;;;;;5014037;28;20053;-45
2021/12/01 11:45:37;;;;;;;24.05;3.40;;;9.10;99.90;;;;;;4995176;28;20471;-46
2021/12/01 11:48:05;;;;;;;19.58;3.40;;;9.10;99.90;;;;;;5011882;28;20108;-46
2021/12/01 11:50:33;;;;;;;22.98;3.00;;;9.00;99.90;;;;;;4994480;28;20165;-46
2021/12/01 11:53:08;;;;;;;26.30;3.58;;;9.00;99.90;;;;;;5001279;28;20045;-45
2021/12/01 11:55:57;;;;;;;30.30;3.60;;;9.00;99.90;;;;;;4996546;28;20053;-47
2021/12/01 11:58:44;;;;;;;20.88;3.58;;;9.00;99.90;;;;;;5014779;28;20049;-45
2021/12/01 12:01:46;;;;;;;23.30;3.28;;;8.90;99.90;;;;;;5013045;28;20116;-45
2021/12/01 12:04:43;;;;;;;27.92;3.95;;;8.90;99.90;;;;;;4988146;28;20049;-46
2021/12/01 12:07:18;;;;;;;23.77;3.88;;;8.90;99.90;;;;;;5014927;28;20505;-46
2021/12/01 12:10:07;;;;;;;23.52;3.22;;;8.90;99.90;;;;;;5012046;28;20089;-45
2021/12/01 12:12:44;;;;;;;20.65;2.90;;;8.80;99.90;;;;;;5007983;28;20053;-45
2021/12/01 12:15:11;;;;;;;26.98;3.28;;;8.80;99.90;;;;;;5006676;28;20125;-46
2021/12/01 12:17:38;;;;;;;19.75;3.08;;;8.70;99.90;;;;;;5012046;28;20519;-45
2021/12/01 12:20:18;;;;;;;23.73;3.50;;;8.70;99.90;;;;;;5011342;28;20045;-46
2021/12/01 12:23:02;;;;;;;20.70;3.17;;;8.60;99.90;;;;;;4994738;28;20054;-45
2021/12/01 12:25:41;;;;;;;26.35;3.53;;;8.60;99.90;;;;;;5006158;28;20050;-45
2021/12/01 12:28:30;;;;;;;26.13;3.72;;;8.60;99.90;;;;;;5012283;28;20133;-48
2021/12/01 12:30:59;;;;;;;30.02;3.40;;;8.60;99.90;;;;;;5008295;28;20136;-44
2021/12/01 12:33:27;;;;;;;24.13;3.38;;;8.60;99.90;;;;;;5007125;28;20077;-45
2021/12/01 12:35:56;;;;;;;25.35;3.53;;;8.60;99.90;;;;;;5015280;28;20085;-49
2021/12/01 12:38:23;;;;;;;31.67;3.55;;;8.60;99.90;;;;;;5004110;28;20143;-45
2021/12/01 12:41:01;;;;;;;28.83;3.58;;;8.60;99.90;;;;;;4994876;28;20453;-45
2021/12/01 12:43:29;;;;;;;23.98;3.63;;;8.60;99.90;;;;;;4987262;28;20476;-45
2021/12/01 12:46:01;;;;;;;29.67;4.07;;;8.60;99.90;;;;;;5018974;28;20528;-44
2021/12/01 12:48:28;;;;;;;;;;;8.50;99.90;;;;;;5012241;28;20046;-47
2021/12/01 12:51:13;;;;;;;30.52;3.97;;;8.50;99.90;;;;;;5016377;28;19926;-45
2021/12/01 12:54:14;;;;;;;26.92;3.35;;;8.40;99.90;;;;;;5019532;28;20046;-44
2021/12/01 12:56:46;;;;;;;17.53;2.37;;;8.40;99.90;;;;;;5005486;28;20056;-45
2021/12/01 12:59:20;;;;;;;29.70;3.80;;;8.40;99.90;;;;;;4994181;28;20498;-45
2021/12/01 13:01:48;;;;;;;18.60;2.92;;;8.40;99.90;;;;;;5010720;28;20440;-50
2021/12/01 13:04:48;;;;;;;23.52;3.47;;;8.30;99.90;;;;;;5015522;28;20112;-47